Time;durP1;ratioP1;P1;durP2;ratioP2;P2;SDS_P1;SDS_P2;PMS_P1;PMS_P2;Temp;Humidity;BMP_temperature;BMP_pressure;BME280_temperature;BME280_humidity;BME280_pressure;Samples;Min_cycle;Max_cycle;Signal;HPM_P1;HPM_P2
2022/12/16 00:00:17;;;;;;;80.60;26.00;;;0.60;99.90;;;;;;5146731;28;20042;-64
2022/12/16 00:02:57;;;;;;;65.72;25.08;;;0.60;99.90;;;;;;5167255;28;20041;-61
2022/12/16 00:05:36;;;;;;;55.33;22.80;;;0.70;99.90;;;;;;5156632;28;20058;-66
2022/12/16 00:08:13;;;;;;;63.03;22.73;;;0.70;99.90;;;;;;5142508;28;20060;-63
2022/12/16 00:10:52;;;;;;;57.55;22.13;;;0.70;99.90;;;;;;5161897;28;20538;-63
2022/12/16 00:13:31;;;;;;;70.63;23.98;;;0.60;99.90;;;;;;5160623;28;20044;-62
2022/12/16 00:16:10;;;;;;;94.03;24.73;;;0.60;99.90;;;;;;5182941;28;20173;-65
2022/12/16 00:18:42;;;;;;;83.65;25.17;;;0.60;99.90;;;;;;5166947;28;20040;-63
2022/12/16 00:21:27;;;;;;;64.78;25.40;;;0.70;99.90;;;;;;5150716;28;20038;-65
2022/12/16 00:24:03;;;;;;;63.60;24.30;;;0.70;99.90;;;;;;5151320;28;20052;-63
2022/12/16 00:26:39;;;;;;;79.05;26.33;;;0.70;99.90;;;;;;5181975;28;20041;-64
2022/12/16 00:29:16;;;;;;;97.72;24.08;;;0.70;99.90;;;;;;5180003;28;20048;-64
2022/12/16 00:31:50;;;;;;;84.85;26.58;;;0.60;99.90;;;;;;5159386;28;20038;-65
2022/12/16 00:34:22;;;;;;;92.85;27.75;;;0.60;99.90;;;;;;5167395;28;20044;-63
2022/12/16 00:37:01;;;;;;;142.35;27.83;;;0.60;99.90;;;;;;5166049;28;20042;-66
2022/12/16 00:39:32;;;;;;;92.85;25.90;;;0.60;99.90;;;;;;5150471;28;20486;-66
2022/12/16 00:42:04;;;;;;;79.82;26.35;;;0.70;99.90;;;;;;5182791;28;20029;-64
2022/12/16 00:44:38;;;;;;;87.03;25.52;;;0.70;99.90;;;;;;5183174;28;20042;-66
2022/12/16 00:47:12;;;;;;;67.05;24.42;;;0.80;99.90;;;;;;5134876;28;20083;-63
2022/12/16 00:49:46;;;;;;;76.15;23.85;;;0.80;99.90;;;;;;5154886;28;20462;-66
2022/12/16 00:52:21;;;;;;;;;;;0.80;99.90;;;;;;5178932;28;20046;-67
2022/12/16 00:54:55;;;;;;;53.15;22.95;;;0.80;99.90;;;;;;5174545;28;19924;-64
2022/12/16 00:57:26;;;;;;;51.95;20.60;;;0.70;99.90;;;;;;5161951;28;20038;-63
2022/12/16 01:00:04;;;;;;;62.40;22.08;;;0.70;99.90;;;;;;5163569;28;20046;-64
2022/12/16 01:02:37;;;;;;;59.55;22.10;;;0.70;99.90;;;;;;5143483;23;20055;-90
2022/12/16 01:05:14;;;;;;;59.53;19.83;;;0.80;99.90;;;;;;5121811;28;20047;-90
2022/12/16 01:07:56;;;;;;;54.88;20.88;;;0.80;99.90;;;;;;5145785;28;20030;-90
2022/12/16 01:10:31;;;;;;;51.58;20.73;;;0.80;99.90;;;;;;5121513;28;20049;-87
2022/12/16 01:13:04;;;;;;;59.13;19.48;;;0.80;99.90;;;;;;5121434;28;20042;-89
2022/12/16 01:15:39;;;;;;;56.40;20.17;;;0.80;99.90;;;;;;5124663;28;20038;-88
2022/12/16 01:18:13;;;;;;;80.80;16.88;;;0.80;99.90;;;;;;5142181;28;20032;-89
2022/12/16 01:20:50;;;;;;;43.00;17.48;;;0.70;99.90;;;;;;5141166;28;20068;-89
2022/12/16 01:23:32;;;;;;;83.20;22.13;;;0.70;99.90;;;;;;5137285;28;20050;-90
2022/12/16 01:26:06;;;;;;;60.05;21.58;;;0.70;99.90;;;;;;5155096;28;20042;-88
2022/12/16 01:28:53;;;;;;;59.05;20.90;;;0.70;99.90;;;;;;5124643;28;20541;-89
2022/12/16 01:31:29;;;;;;;61.65;20.98;;;0.70;99.90;;;;;;5124868;28;20042;-89
2022/12/16 01:34:01;;;;;;;56.63;19.88;;;0.70;99.90;;;;;;5120456;28;20357;-90
2022/12/16 01:36:35;;;;;;;50.05;19.75;;;0.80;99.90;;;;;;5170940;28;20044;-89
2022/12/16 01:39:09;;;;;;;65.57;20.60;;;0.80;99.90;;;;;;5155570;28;20034;-88
2022/12/16 01:41:46;;;;;;;47.80;20.65;;;0.90;99.90;;;;;;5156011;28;20038;-89
2022/12/16 01:44:26;;;;;;;52.05;19.52;;;0.90;99.90;;;;;;5148239;28;20069;-89
2022/12/16 01:47:04;;;;;;;60.67;18.77;;;1.00;99.90;;;;;;5156263;28;20044;-89
2022/12/16 01:49:54;;;;;;;46.92;18.63;;;1.00;99.90;;;;;;5151614;28;20050;-88
2022/12/16 01:52:31;;;;;;;37.38;16.83;;;1.00;99.90;;;;;;5153465;28;20026;-89
2022/12/16 01:55:15;;;;;;;58.03;18.70;;;0.90;99.90;;;;;;5151941;28;20038;-89
2022/12/16 01:58:01;;;;;;;49.72;20.98;;;0.90;99.90;;;;;;5147547;28;20340;-88
2022/12/16 02:00:38;;;;;;;40.60;18.40;;;0.90;99.90;;;;;;5155870;28;20038;-90
2022/12/16 02:03:10;;;;;;;44.35;19.42;;;1.00;99.90;;;;;;5172117;28;20030;-89
2022/12/16 02:05:50;;;;;;;48.78;18.13;;;1.00;99.90;;;;;;5129224;28;20078;-89
2022/12/16 02:08:23;;;;;;;41.88;18.13;;;1.00;99.90;;;;;;5139492;28;20038;-89
2022/12/16 02:11:54;;;;;;;49.70;20.63;;;1.00;99.90;;;;;;5156691;28;20038;-90
2022/12/16 02:14:39;;;;;;;43.83;19.42;;;1.00;99.90;;;;;;5154358;28;20049;-90
2022/12/16 02:17:34;;;;;;;49.33;19.88;;;0.90;99.90;;;;;;5155689;28;20034;-90
2022/12/16 02:20:17;;;;;;;;;;;0.90;99.90;;;;;;5139744;28;20042;-89
2022/12/16 02:23:30;;;;;;;31.98;16.17;;;0.90;99.90;;;;;;5146560;28;19917;-91
2022/12/16 02:26:48;;;;;;;38.50;16.40;;;0.90;99.90;;;;;;5135600;28;20039;-89
2022/12/16 02:29:42;;;;;;;31.48;14.85;;;0.80;99.90;;;;;;5151532;28;20046;-90
2022/12/16 02:32:51;;;;;;;33.92;15.45;;;0.90;99.90;;;;;;5116610;28;20042;-88
2022/12/16 02:35:57;;;;;;;30.23;14.48;;;0.90;99.90;;;;;;5135596;28;20053;-91
2022/12/16 02:38:59;;;;;;;35.17;15.32;;;1.00;99.90;;;;;;5113698;28;20027;-89
2022/12/16 02:41:56;;;;;;;31.02;14.68;;;1.10;99.90;;;;;;5151084;28;20046;-90
2022/12/16 02:45:02;;;;;;;27.00;12.77;;;1.10;99.90;;;;;;5134883;28;20043;-90
2022/12/16 02:47:38;;;;;;;;;;;1.10;99.90;;;;;;5149507;28;20047;-89
2022/12/16 02:50:40;;;;;;;28.27;13.43;;;1.10;99.90;;;;;;5122917;28;19910;-88
2022/12/16 02:53:17;;;;;;;24.77;13.60;;;1.10;99.90;;;;;;5154840;23;20687;-64
2022/12/16 02:56:42;;;;;;;27.38;14.20;;;1.00;99.90;;;;;;5089172;29;20039;-62
2022/12/16 02:59:31;;;;;;;24.52;12.60;;;1.00;99.90;;;;;;5068264;29;20485;-66
2022/12/16 03:02:50;;;;;;;23.75;13.38;;;0.90;99.90;;;;;;5125908;29;20490;-64
2022/12/16 03:05:37;;;;;;;24.38;12.50;;;1.00;99.90;;;;;;5103759;28;20576;-65
2022/12/16 03:08:40;;;;;;;19.15;10.18;;;1.00;99.90;;;;;;5096564;29;20122;-65
2022/12/16 03:11:16;;;;;;;18.55;9.90;;;1.00;99.90;;;;;;5073116;29;20043;-65
2022/12/16 03:14:03;;;;;;;18.92;9.85;;;0.90;99.90;;;;;;5108534;29;20035;-63
2022/12/16 03:16:45;;;;;;;19.35;10.80;;;0.90;99.90;;;;;;5125958;29;20049;-69
2022/12/16 03:19:23;;;;;;;17.40;9.35;;;0.90;99.90;;;;;;5094189;29;20049;-65
2022/12/16 03:22:19;;;;;;;21.63;10.68;;;0.90;99.90;;;;;;5102591;29;20443;-64
2022/12/16 03:24:51;;;;;;;21.13;11.35;;;1.00;99.90;;;;;;5094007;29;20256;-65
2022/12/16 03:27:56;;;;;;;19.70;10.90;;;1.00;99.90;;;;;;5093068;29;20043;-65
2022/12/16 03:30:41;;;;;;;22.98;10.73;;;1.00;99.90;;;;;;5093840;29;20081;-63
2022/12/16 03:33:29;;;;;;;19.98;10.40;;;1.00;99.90;;;;;;5090653;29;20050;-65
2022/12/16 03:36:20;;;;;;;19.70;9.45;;;1.00;99.90;;;;;;5090289;29;20046;-64
2022/12/16 03:38:57;;;;;;;21.67;11.40;;;1.00;99.90;;;;;;5107508;29;20178;-66
2022/12/16 03:41:36;;;;;;;17.70;9.82;;;1.00;99.90;;;;;;5123329;29;20038;-66
2022/12/16 03:44:08;;;;;;;22.67;11.25;;;1.00;99.90;;;;;;5092715;29;20047;-62
2022/12/16 03:46:47;;;;;;;20.35;11.48;;;1.00;99.90;;;;;;5093068;29;20351;-66
2022/12/16 03:49:30;;;;;;;18.63;11.18;;;1.00;99.90;;;;;;5082956;29;20061;-68
2022/12/16 03:52:05;;;;;;;19.92;10.65;;;1.10;99.90;;;;;;5097578;29;20038;-66
2022/12/16 03:54:43;;;;;;;38.95;12.80;;;1.00;99.90;;;;;;5093241;29;20047;-65
2022/12/16 03:57:21;;;;;;;22.42;10.93;;;1.10;99.90;;;;;;5117867;28;20045;-66
2022/12/16 03:59:58;;;;;;;22.35;12.00;;;1.10;99.90;;;;;;5101944;29;20359;-63
2022/12/16 04:02:35;;;;;;;24.98;12.63;;;1.10;99.90;;;;;;5121173;29;20040;-62
2022/12/16 04:05:10;;;;;;;23.05;12.30;;;1.00;99.90;;;;;;5106079;28;20501;-65
2022/12/16 04:07:43;;;;;;;;;;;1.10;99.90;;;;;;5094961;29;20039;-65
2022/12/16 04:24:38;;;;;;;40.72;12.23;;;1.10;99.90;;;;;;5094117;29;20585;-65
2022/12/16 04:27:28;;;;;;;34.55;13.73;;;1.10;99.90;;;;;;5093180;29;20290;-65
2022/12/16 04:30:18;;;;;;;59.38;13.15;;;1.10;99.90;;;;;;5107752;29;20031;-67
